createdAt,value
2024-01-24T00:01:15.783Z,100475.33
2024-01-24T00:03:46.687Z,100465.95
2024-01-24T00:06:16.586Z,100456.17
2024-01-24T00:08:49.467Z,100438.17
2024-01-24T00:11:19.177Z,100420.80
2024-01-24T00:13:51.203Z,100407.57
2024-01-24T00:16:20.508Z,100401.65
2024-01-24T00:18:51.296Z,100391.04
2024-01-24T00:21:20.667Z,100386.56
2024-01-24T00:23:51.286Z,100379.89
2024-01-24T00:26:20.595Z,100369.48
2024-01-24T00:28:51.514Z,100363.24
2024-01-24T00:31:20.717Z,100362.13
2024-01-24T00:33:53.978Z,100357.10
2024-01-24T00:36:24.789Z,100349.38
2024-01-24T00:38:55.373Z,100346.66
2024-01-24T00:41:24.766Z,100349.68
2024-01-24T00:43:55.414Z,100352.33
2024-01-24T00:46:24.709Z,100352.08
2024-01-24T00:48:55.907Z,100351.38
2024-01-24T00:51:25.583Z,100341.39
2024-01-24T00:53:56.117Z,100330.81
2024-01-24T00:56:25.503Z,100323.02
2024-01-24T00:58:56.143Z,100326.80
2024-01-24T01:01:25.543Z,100325.10
2024-01-24T01:03:56.567Z,100318.23
2024-01-24T01:06:27.820Z,100317.67
2024-01-24T01:09:01.515Z,100313.35
2024-01-24T01:11:31.023Z,100292.38
2024-01-24T01:14:01.633Z,100269.54
2024-01-24T01:16:31.151Z,100266.86
2024-01-24T01:19:02.252Z,100264.73
2024-01-24T01:21:31.781Z,100260.55
2024-01-24T01:24:02.450Z,100252.55
2024-01-24T01:26:34.164Z,100237.36
2024-01-24T01:29:05.221Z,100231.54
2024-01-24T01:31:34.514Z,100222.84
2024-01-24T01:34:05.743Z,100215.20
2024-01-24T01:36:35.286Z,100209.90
2024-01-24T01:39:05.895Z,100206.29
2024-01-24T01:41:38.352Z,100198.00
2024-01-24T01:44:09.206Z,100191.96
2024-01-24T01:46:39.324Z,100185.38
2024-01-24T01:49:10.023Z,100164.76
2024-01-24T01:51:39.794Z,100160.74
2024-01-24T01:54:10.608Z,100167.08
2024-01-24T01:56:40.211Z,100156.48
2024-01-24T01:59:10.737Z,100149.86
2024-01-24T02:01:40.188Z,100149.02
2024-01-24T02:04:10.944Z,100139.13
2024-01-24T02:06:40.475Z,100130.09
2024-01-24T02:09:11.816Z,100122.27
2024-01-24T02:11:41.799Z,100120.04
2024-01-24T02:14:13.920Z,100113.09
2024-01-24T02:16:43.212Z,100108.91
2024-01-24T02:19:14.119Z,100098.60
2024-01-24T02:21:43.557Z,100079.68
2024-01-24T02:24:14.446Z,100066.62
2024-01-24T02:26:44.517Z,100047.21
2024-01-24T02:29:15.351Z,100032.40
2024-01-24T02:31:44.666Z,100019.84
2024-01-24T02:34:15.271Z,100020.41
2024-01-24T02:36:45.198Z,100016.70
2024-01-24T02:39:15.868Z,100007.48
2024-01-24T02:41:46.053Z,100003.06
2024-01-24T02:44:16.672Z,99990.78
2024-01-24T02:46:46.278Z,99983.27
2024-01-24T02:49:17.866Z,99983.41
2024-01-24T02:51:47.467Z,99979.65
2024-01-24T02:54:18.204Z,99976.52
2024-01-24T02:56:47.687Z,99967.84
2024-01-24T02:59:18.522Z,99962.20
2024-01-24T03:01:48.344Z,99955.65
2024-01-24T03:04:19.033Z,99943.80
2024-01-24T03:06:48.617Z,99946.80
2024-01-24T03:09:19.339Z,99938.59
2024-01-24T03:11:48.901Z,99924.52
2024-01-24T03:14:19.433Z,99910.20
2024-01-24T03:16:48.944Z,99911.25
2024-01-24T03:19:20.160Z,99903.34
2024-01-24T03:21:49.496Z,99891.44
2024-01-24T03:24:20.252Z,99879.18
2024-01-24T03:26:49.715Z,99869.31
2024-01-24T03:29:21.041Z,99864.22
2024-01-24T03:31:50.366Z,99848.23
2024-01-24T03:34:21.180Z,99847.69
2024-01-24T03:36:50.739Z,99839.45
2024-01-24T03:39:21.356Z,99824.76
2024-01-24T03:41:50.546Z,99819.83
2024-01-24T03:44:21.334Z,99810.84
2024-01-24T03:46:51.109Z,99804.61
2024-01-24T03:49:23.082Z,99801.06
2024-01-24T03:51:52.539Z,99798.05
2024-01-24T03:54:24.029Z,99795.36
2024-01-24T03:56:53.469Z,99795.27
2024-01-24T03:59:24.333Z,99787.63
2024-01-24T04:01:53.790Z,99790.09
2024-01-24T04:04:25.124Z,99789.96
2024-01-24T04:06:56.167Z,99792.66
2024-01-24T04:09:26.985Z,99797.41
2024-01-24T04:11:56.703Z,99804.23
2024-01-24T04:14:27.300Z,99805.92
2024-01-24T04:16:56.697Z,99800.20
2024-01-24T04:19:27.517Z,99800.79
2024-01-24T04:21:57.318Z,99801.80
2024-01-24T04:24:28.002Z,99796.84
2024-01-24T04:26:58.709Z,99790.42
2024-01-24T04:29:29.342Z,99778.25
2024-01-24T04:31:58.742Z,99767.77
2024-01-24T04:34:29.412Z,99763.22
2024-01-24T04:36:58.921Z,99759.58
2024-01-24T04:39:29.855Z,99750.66
2024-01-24T04:42:05.687Z,99745.13
2024-01-24T04:44:42.895Z,99739.44
2024-01-24T04:47:15.061Z,99739.03
2024-01-24T04:49:46.490Z,99729.64
2024-01-24T04:52:16.109Z,99722.29
2024-01-24T04:54:46.956Z,99716.36
2024-01-24T04:57:16.351Z,99712.02
2024-01-24T04:59:53.360Z,99704.17
2024-01-24T05:02:27.323Z,99692.86
2024-01-24T05:04:56.819Z,99682.21
2024-01-24T05:07:27.447Z,99673.53
2024-01-24T05:09:57.003Z,99668.70
2024-01-24T05:12:27.819Z,99657.48
2024-01-24T05:14:57.805Z,99652.59
2024-01-24T05:17:28.557Z,99631.27
2024-01-24T05:19:57.843Z,99612.58
2024-01-24T05:22:28.978Z,99599.15
2024-01-24T05:24:58.305Z,99589.15
2024-01-24T05:27:29.021Z,99588.96
2024-01-24T05:29:58.290Z,99596.35
2024-01-24T05:32:29.160Z,99601.51
2024-01-24T05:34:59.146Z,99588.66
2024-01-24T05:37:30.149Z,99592.18
2024-01-24T05:39:59.818Z,99586.75
2024-01-24T05:42:30.892Z,99589.82
2024-01-24T05:45:00.467Z,99586.16
2024-01-24T05:47:31.230Z,99580.45
2024-01-24T05:50:00.665Z,99581.35
2024-01-24T05:52:31.357Z,99574.77
2024-01-24T05:55:01.251Z,99572.13
2024-01-24T05:57:31.908Z,99582.45
2024-01-24T06:00:01.346Z,99584.70
2024-01-24T06:02:32.614Z,99580.77
2024-01-24T06:05:02.995Z,99566.98
2024-01-24T06:07:33.886Z,99556.65
2024-01-24T06:10:03.460Z,99564.32
2024-01-24T06:12:34.024Z,99567.64
2024-01-24T06:15:03.858Z,99573.27
2024-01-24T06:17:35.551Z,99568.13
2024-01-24T06:20:05.497Z,99557.36
2024-01-24T06:22:36.956Z,99536.58
2024-01-24T06:25:09.017Z,99524.46
2024-01-24T06:27:40.660Z,99522.48
2024-01-24T06:30:19.526Z,99517.54
2024-01-24T06:32:54.246Z,99532.31
2024-01-24T06:35:23.719Z,99519.44
2024-01-24T06:37:54.500Z,99517.63
2024-01-24T06:40:23.955Z,99505.29
2024-01-24T06:42:54.810Z,99503.41
2024-01-24T06:45:24.572Z,99502.09
2024-01-24T06:47:55.460Z,99509.39
2024-01-24T06:50:25.724Z,99494.29
2024-01-24T06:52:56.747Z,99493.10
2024-01-24T06:55:26.123Z,99484.05
2024-01-24T06:57:57.150Z,99483.63
2024-01-24T07:00:28.563Z,99484.77
2024-01-24T07:02:59.382Z,99472.23
2024-01-24T07:05:30.363Z,99475.84
2024-01-24T07:08:01.005Z,99480.52
2024-01-24T07:10:30.407Z,99477.81
2024-01-24T07:13:01.148Z,99474.02
2024-01-24T07:15:30.783Z,99464.33
2024-01-24T07:18:01.450Z,99443.29
2024-01-24T07:20:31.396Z,99443.67
2024-01-24T07:23:03.129Z,99441.56
2024-01-24T07:25:32.553Z,99429.02
2024-01-24T07:28:03.679Z,99430.13
2024-01-24T07:30:33.129Z,99408.15
2024-01-24T07:33:05.531Z,99417.00
2024-01-24T07:35:34.976Z,99421.79
2024-01-24T07:38:05.497Z,99402.58
2024-01-24T07:40:34.902Z,99398.20
2024-01-24T07:43:05.739Z,99396.48
2024-01-24T07:45:35.271Z,99388.04
2024-01-24T07:48:07.302Z,99390.04
2024-01-24T07:50:37.015Z,99368.25
2024-01-24T07:53:07.753Z,99365.61
2024-01-24T07:55:46.725Z,99375.54
2024-01-24T07:58:26.557Z,99373.25
2024-01-24T08:00:56.868Z,99371.27
2024-01-24T08:03:27.806Z,99364.98
2024-01-24T08:05:57.962Z,99357.24
2024-01-24T08:08:28.830Z,99361.08
2024-01-24T08:10:58.784Z,99356.34
2024-01-24T08:13:29.389Z,99341.95
2024-01-24T08:15:59.265Z,99337.78
2024-01-24T08:18:30.436Z,99330.02
2024-01-24T08:20:59.843Z,99333.09
2024-01-24T08:23:38.348Z,99330.53
2024-01-24T08:26:17.403Z,99334.22
2024-01-24T08:28:46.795Z,99332.16
2024-01-24T08:31:17.534Z,99327.16
2024-01-24T08:33:50.323Z,99323.53
2024-01-24T08:36:22.981Z,99332.70
2024-01-24T08:38:52.497Z,99335.33
2024-01-24T08:41:23.114Z,99331.02
2024-01-24T08:43:53.826Z,99323.30
2024-01-24T08:46:24.848Z,99327.77
2024-01-24T08:48:54.192Z,99326.05
2024-01-24T08:51:26.995Z,99327.52
2024-01-24T08:53:56.492Z,99335.47
2024-01-24T08:56:27.319Z,99339.42
2024-01-24T08:58:56.880Z,99322.61
2024-01-24T09:01:32.129Z,99322.67
2024-01-24T09:04:04.252Z,99303.94
2024-01-24T09:06:33.862Z,99300.22
2024-01-24T09:09:05.831Z,99299.54
2024-01-24T09:11:42.065Z,99292.40
2024-01-24T09:14:21.075Z,99278.98
2024-01-24T09:16:50.687Z,99280.98
2024-01-24T09:19:23.416Z,99291.09
2024-01-24T09:21:53.198Z,99287.80
2024-01-24T09:24:24.575Z,99296.05
2024-01-24T09:26:54.131Z,99298.97
2024-01-24T09:29:24.820Z,99302.98
2024-01-24T09:31:54.518Z,99296.99
2024-01-24T09:34:28.594Z,99287.13
2024-01-24T09:37:00.690Z,99278.70
2024-01-24T09:39:30.498Z,99264.14
2024-01-24T09:42:01.110Z,99273.96
2024-01-24T09:44:32.157Z,99275.31
2024-01-24T09:47:03.383Z,99272.20
2024-01-24T09:49:33.625Z,99254.58
2024-01-24T09:52:04.982Z,99245.25
2024-01-24T09:54:36.326Z,99238.98
2024-01-24T09:57:08.009Z,99252.83
2024-01-24T09:59:37.350Z,99244.54
2024-01-24T10:02:08.720Z,99249.89
2024-01-24T10:04:39.300Z,99243.64
2024-01-24T10:07:10.519Z,99230.23
2024-01-24T10:09:39.851Z,99251.52
2024-01-24T10:12:10.821Z,99245.80
2024-01-24T10:14:42.534Z,99243.41
2024-01-24T10:17:13.609Z,99238.59
2024-01-24T10:19:43.334Z,99244.26
2024-01-24T10:22:14.248Z,99233.64
2024-01-24T10:24:43.674Z,99224.17
2024-01-24T10:27:14.905Z,99198.88
2024-01-24T10:29:45.362Z,99198.45
2024-01-24T10:32:16.270Z,99202.80
2024-01-24T10:34:46.327Z,99194.42
2024-01-24T10:37:20.073Z,99178.34
2024-01-24T10:39:49.799Z,99185.70
2024-01-24T10:42:21.419Z,99182.93
2024-01-24T10:44:51.884Z,99176.73
2024-01-24T10:47:22.985Z,99178.03
2024-01-24T10:49:53.557Z,99183.39
2024-01-24T10:52:24.680Z,99183.70
2024-01-24T10:54:54.144Z,99173.84
2024-01-24T10:57:27.125Z,99169.55
2024-01-24T10:59:57.233Z,99154.86
2024-01-24T11:02:28.187Z,99148.77
2024-01-24T11:04:58.300Z,99148.43
2024-01-24T11:07:32.262Z,99150.27
2024-01-24T11:10:15.113Z,99156.89
2024-01-24T11:12:46.081Z,99152.98
2024-01-24T11:15:15.448Z,99153.91
2024-01-24T11:17:48.423Z,99140.47
2024-01-24T11:20:21.781Z,99140.77
2024-01-24T11:22:51.106Z,99134.77
2024-01-24T11:25:38.421Z,99123.03
2024-01-24T11:28:09.324Z,99121.41
2024-01-24T11:30:40.125Z,99127.49
2024-01-24T11:33:16.146Z,99124.17
2024-01-24T11:35:48.326Z,99128.02
2024-01-24T11:38:29.922Z,99120.62
2024-01-24T11:41:04.470Z,99117.85
2024-01-24T11:43:37.683Z,99115.16
2024-01-24T11:46:11.427Z,99119.88
2024-01-24T11:48:42.057Z,99115.30
2024-01-24T11:51:14.619Z,99111.41
2024-01-24T11:53:44.245Z,99108.71
2024-01-24T11:56:17.971Z,99106.95
2024-01-24T11:58:47.559Z,99103.65
2024-01-24T12:01:18.917Z,99096.59
2024-01-24T12:03:49.620Z,99102.16
2024-01-24T12:06:22.946Z,99099.45
2024-01-24T12:08:53.902Z,99092.35
2024-01-24T12:11:26.035Z,99090.25
2024-01-24T12:13:55.348Z,99084.14
2024-01-24T12:16:27.396Z,99080.02
2024-01-24T12:18:57.095Z,99078.98
2024-01-24T12:21:28.799Z,99077.83
2024-01-24T12:23:58.693Z,99075.33
2024-01-24T12:26:32.182Z,99083.56
2024-01-24T12:29:02.101Z,99079.94
2024-01-24T12:31:32.707Z,99080.23
2024-01-24T12:34:02.769Z,99080.59
2024-01-24T12:36:33.265Z,99075.06
2024-01-24T12:39:02.785Z,99074.89
2024-01-24T12:41:33.812Z,99085.09
2024-01-24T12:44:03.311Z,99093.34
2024-01-24T12:46:33.976Z,99109.84
2024-01-24T12:49:03.600Z,99129.77
2024-01-24T12:51:34.940Z,99140.81
2024-01-24T12:54:06.241Z,99150.48
2024-01-24T12:56:36.880Z,99225.14
2024-01-24T12:59:06.494Z,99225.83
2024-01-24T13:01:37.423Z,99236.52
2024-01-24T13:04:06.990Z,99234.00
2024-01-24T13:06:38.214Z,99243.08
2024-01-24T13:09:07.889Z,99231.15
2024-01-24T13:11:38.413Z,99229.55
2024-01-24T13:14:08.424Z,99233.09
2024-01-24T13:16:38.958Z,99234.23
2024-01-24T13:19:08.409Z,99232.85
2024-01-24T13:21:42.725Z,99220.98
2024-01-24T13:24:15.059Z,99219.98
2024-01-24T13:26:45.271Z,99241.67
2024-01-24T13:29:16.522Z,99241.46
2024-01-24T13:31:46.682Z,99241.15
2024-01-24T13:34:18.672Z,99223.95
2024-01-24T13:36:48.294Z,99229.27
2024-01-24T13:39:19.246Z,99230.31
2024-01-24T13:41:48.438Z,99223.10
2024-01-24T13:44:19.685Z,99217.27
2024-01-24T13:46:49.281Z,99219.92
2024-01-24T13:49:21.838Z,99223.24
2024-01-24T13:51:52.095Z,99226.44
2024-01-24T13:54:23.820Z,99226.73
2024-01-24T13:56:53.655Z,99227.46
2024-01-24T13:59:24.405Z,99226.64
2024-01-24T14:01:57.063Z,99235.30
2024-01-24T14:04:31.564Z,99237.70
2024-01-24T14:07:01.069Z,99238.12
2024-01-24T14:09:31.770Z,99231.21
2024-01-24T14:12:01.333Z,99232.33
2024-01-24T14:14:32.590Z,99239.53
2024-01-24T14:17:02.619Z,99232.60
2024-01-24T14:19:34.020Z,99235.14
2024-01-24T14:22:03.798Z,99230.83
2024-01-24T14:24:34.526Z,99231.05
2024-01-24T14:27:03.998Z,99225.27
2024-01-24T14:29:34.540Z,99222.05
2024-01-24T14:32:04.417Z,99226.85
2024-01-24T14:34:38.560Z,99216.81
2024-01-24T14:37:11.024Z,99217.73
2024-01-24T14:39:42.293Z,99225.27
2024-01-24T14:42:11.781Z,99229.58
2024-01-24T14:44:42.709Z,99236.91
2024-01-24T14:47:12.122Z,99249.81
2024-01-24T14:49:42.666Z,99238.20
2024-01-24T14:52:12.374Z,99235.80
2024-01-24T14:54:43.325Z,99235.64
2024-01-24T14:57:13.300Z,99239.85
2024-01-24T14:59:43.940Z,99240.08
2024-01-24T15:02:13.541Z,99242.77
2024-01-24T15:04:44.098Z,99247.13
2024-01-24T15:07:13.849Z,99246.52
2024-01-24T15:09:44.375Z,99258.61
2024-01-24T15:12:14.330Z,99256.58
2024-01-24T15:14:44.857Z,99259.61
2024-01-24T15:17:14.261Z,99267.37
2024-01-24T15:19:48.409Z,99252.03
2024-01-24T15:22:23.242Z,99258.91
2024-01-24T15:24:54.706Z,99263.05
2024-01-24T15:27:26.431Z,99270.64
2024-01-24T15:29:56.658Z,99268.70
2024-01-24T15:32:27.970Z,99265.64
2024-01-24T15:34:57.649Z,99265.34
2024-01-24T15:37:29.042Z,99263.52
2024-01-24T15:39:58.998Z,99264.64
2024-01-24T15:42:34.810Z,99267.01
2024-01-24T15:45:06.252Z,99268.98
2024-01-24T15:47:36.259Z,99269.95
2024-01-24T15:50:07.208Z,99278.78
2024-01-24T15:52:36.877Z,99284.68
2024-01-24T15:55:07.775Z,99290.27
2024-01-24T15:57:37.703Z,99291.18
2024-01-24T16:00:12.307Z,99301.69
2024-01-24T16:02:44.404Z,99311.84
2024-01-24T16:05:35.568Z,99317.11
2024-01-24T16:08:06.932Z,99314.94
2024-01-24T16:10:36.632Z,99323.73
2024-01-24T16:13:07.423Z,99325.61
2024-01-24T16:15:37.300Z,99327.03
2024-01-24T16:18:08.436Z,99324.98
2024-01-24T16:20:37.819Z,99334.25
2024-01-24T16:23:08.444Z,99333.77
2024-01-24T16:25:37.946Z,99339.15
2024-01-24T16:28:11.834Z,99339.45
2024-01-24T16:30:44.739Z,99340.05
2024-01-24T16:33:14.395Z,99344.72
2024-01-24T16:35:45.112Z,99341.69
2024-01-24T16:38:15.095Z,99334.21
2024-01-24T16:40:46.446Z,99331.16
2024-01-24T16:43:15.803Z,99338.23
2024-01-24T16:45:46.577Z,99346.85
2024-01-24T16:48:15.953Z,99352.45
2024-01-24T16:50:46.621Z,99358.15
2024-01-24T16:53:16.533Z,99352.92
2024-01-24T16:55:47.268Z,99357.28
2024-01-24T16:58:16.772Z,99364.02
2024-01-24T17:00:47.693Z,99348.90
2024-01-24T17:03:17.155Z,99352.90
2024-01-24T17:05:47.871Z,99364.27
2024-01-24T17:08:17.361Z,99369.02
2024-01-24T17:10:47.776Z,99357.98
2024-01-24T17:13:18.622Z,99364.55
2024-01-24T17:15:49.375Z,99368.63
2024-01-24T17:18:20.234Z,99375.52
2024-01-24T17:20:50.910Z,99368.41
2024-01-24T17:23:20.512Z,99372.25
2024-01-24T17:25:51.156Z,99378.05
2024-01-24T17:28:20.860Z,99376.05
2024-01-24T17:30:54.056Z,99373.36
2024-01-24T17:33:23.668Z,99373.59
2024-01-24T17:35:54.828Z,99379.14
2024-01-24T17:38:24.618Z,99379.77
2024-01-24T17:40:55.242Z,99379.70
2024-01-24T17:43:24.964Z,99374.04
2024-01-24T17:45:55.676Z,99370.52
2024-01-24T17:48:25.260Z,99375.98
2024-01-24T17:50:56.425Z,99376.98
2024-01-24T17:53:25.828Z,99376.50
2024-01-24T17:55:56.459Z,99377.52
2024-01-24T17:58:25.772Z,99382.16
2024-01-24T18:00:57.167Z,99375.67
2024-01-24T18:03:26.868Z,99378.23
2024-01-24T18:05:58.179Z,99376.34
2024-01-24T18:08:27.476Z,99374.61
2024-01-24T18:10:58.821Z,99370.11
2024-01-24T18:13:29.274Z,99368.60
2024-01-24T18:16:00.682Z,99367.55
2024-01-24T18:18:30.334Z,99369.80
2024-01-24T18:21:00.934Z,99363.53
2024-01-24T18:23:30.441Z,99366.15
2024-01-24T18:26:00.955Z,99362.93
2024-01-24T18:28:30.985Z,99370.40
2024-01-24T18:31:01.725Z,99373.33
2024-01-24T18:33:31.595Z,99372.39
2024-01-24T18:36:02.281Z,99377.69
2024-01-24T18:38:31.657Z,99378.64
2024-01-24T18:41:02.698Z,99382.44
2024-01-24T18:43:32.202Z,99378.77
2024-01-24T18:46:02.747Z,99384.58
2024-01-24T18:48:33.229Z,99380.19
2024-01-24T18:51:04.451Z,99378.23
2024-01-24T18:53:34.829Z,99374.73
2024-01-24T18:56:07.027Z,99373.48
2024-01-24T18:58:37.684Z,99377.71
2024-01-24T19:01:08.656Z,99381.15
2024-01-24T19:03:38.958Z,99388.54
2024-01-24T19:06:09.859Z,99386.03
2024-01-24T19:08:39.631Z,99388.34
2024-01-24T19:11:10.272Z,99390.48
2024-01-24T19:13:40.157Z,99396.98
2024-01-24T19:16:11.813Z,99395.05
2024-01-24T19:18:41.932Z,99393.39
2024-01-24T19:21:12.910Z,99391.48
2024-01-24T19:23:42.196Z,99394.48
2024-01-24T19:26:12.732Z,99393.27
2024-01-24T19:28:42.645Z,99393.76
2024-01-24T19:31:13.795Z,99397.96
2024-01-24T19:33:43.324Z,99399.96
2024-01-24T19:36:15.582Z,99401.67
2024-01-24T19:38:46.921Z,99408.05
2024-01-24T19:41:17.640Z,99401.39
2024-01-24T19:43:47.042Z,99405.65
2024-01-24T19:46:18.492Z,99410.69
2024-01-24T19:48:48.484Z,99415.90
2024-01-24T19:51:19.904Z,99425.36
2024-01-24T19:53:54.585Z,99425.45
2024-01-24T19:56:25.648Z,99423.89
2024-01-24T19:58:55.031Z,99426.02
2024-01-24T20:01:25.728Z,99422.67
2024-01-24T20:03:55.296Z,99426.22
2024-01-24T20:06:26.054Z,99423.35
2024-01-24T20:08:55.704Z,99426.73
2024-01-24T20:11:26.856Z,99428.27
2024-01-24T20:13:56.250Z,99427.27
2024-01-24T20:16:26.994Z,99431.60
2024-01-24T20:18:57.471Z,99430.52
2024-01-24T20:21:29.270Z,99431.45
2024-01-24T20:23:58.981Z,99428.46
2024-01-24T20:26:30.229Z,99425.02
2024-01-24T20:28:59.742Z,99422.73
2024-01-24T20:31:30.484Z,99433.96
2024-01-24T20:34:00.575Z,99436.27
2024-01-24T20:36:31.471Z,99426.33
2024-01-24T20:39:01.031Z,99432.40
2024-01-24T20:41:32.344Z,99432.71
2024-01-24T20:44:01.909Z,99434.80
2024-01-24T20:46:33.258Z,99437.27
2024-01-24T20:49:02.879Z,99437.30
2024-01-24T20:51:33.664Z,99432.53
2024-01-24T20:54:05.015Z,99431.95
2024-01-24T20:56:35.945Z,99433.09
2024-01-24T20:59:05.352Z,99435.47
2024-01-24T21:01:36.061Z,99431.88
2024-01-24T21:04:05.910Z,99440.94
2024-01-24T21:06:37.184Z,99439.46
2024-01-24T21:09:06.538Z,99440.98
2024-01-24T21:11:37.375Z,99440.80
2024-01-24T21:14:06.776Z,99447.55
2024-01-24T21:16:37.311Z,99455.98
2024-01-24T21:19:07.038Z,99451.73
2024-01-24T21:21:37.850Z,99460.17
2024-01-24T21:24:08.170Z,99468.90
2024-01-24T21:26:38.903Z,99473.18
2024-01-24T21:29:08.311Z,99474.24
2024-01-24T21:31:39.351Z,99471.85
2024-01-24T21:34:08.830Z,99461.17
2024-01-24T21:36:42.643Z,99463.16
2024-01-24T21:39:18.725Z,99464.63
2024-01-24T21:41:48.036Z,99468.79
2024-01-24T21:44:18.763Z,99479.21
2024-01-24T21:46:48.261Z,99482.34
2024-01-24T21:49:19.152Z,99486.32
2024-01-24T21:51:48.634Z,99492.75
2024-01-24T21:54:20.766Z,99493.15
2024-01-24T21:56:50.774Z,99487.64
2024-01-24T21:59:21.618Z,99489.59
2024-01-24T22:01:51.512Z,99492.80
2024-01-24T22:04:22.433Z,99484.55
2024-01-24T22:06:52.063Z,99489.09
2024-01-24T22:09:22.605Z,99480.15
2024-01-24T22:11:52.221Z,99471.85
2024-01-24T22:14:23.039Z,99479.52
2024-01-24T22:16:53.695Z,99476.36
2024-01-24T22:19:24.535Z,99467.08
2024-01-24T22:21:54.649Z,99463.56
2024-01-24T22:24:25.993Z,99470.49
2024-01-24T22:26:55.381Z,99457.95
2024-01-24T22:29:25.920Z,99473.50
2024-01-24T22:31:55.317Z,99479.02
2024-01-24T22:34:26.105Z,99479.31
2024-01-24T22:36:56.048Z,99471.77
2024-01-24T22:39:27.108Z,99464.08
2024-01-24T22:41:56.502Z,99462.52
2024-01-24T22:44:27.445Z,99456.30
2024-01-24T22:46:56.844Z,99450.70
2024-01-24T22:49:27.695Z,99453.97
2024-01-24T22:51:57.133Z,99456.18
2024-01-24T22:54:27.847Z,99462.40
2024-01-24T22:56:57.424Z,99470.20
2024-01-24T22:59:28.353Z,99463.17
2024-01-24T23:01:57.939Z,99459.52
2024-01-24T23:04:28.746Z,99463.36
2024-01-24T23:06:58.747Z,99469.64
2024-01-24T23:09:29.623Z,99475.73
2024-01-24T23:11:58.961Z,99477.23
2024-01-24T23:14:29.582Z,99481.89
2024-01-24T23:16:58.892Z,99481.13
2024-01-24T23:19:29.664Z,99493.68
2024-01-24T23:21:59.186Z,99501.14
2024-01-24T23:24:29.961Z,99503.13
2024-01-24T23:26:59.353Z,99504.95
2024-01-24T23:29:30.263Z,99502.05
2024-01-24T23:31:59.598Z,99507.58
2024-01-24T23:34:30.327Z,99503.45
2024-01-24T23:37:00.094Z,99501.13
2024-01-24T23:39:30.889Z,99496.13
2024-01-24T23:42:00.228Z,99499.25
2024-01-24T23:44:31.013Z,99499.14
2024-01-24T23:47:00.327Z,99500.02
2024-01-24T23:49:31.531Z,99502.92
2024-01-24T23:52:00.980Z,99501.35
2024-01-24T23:54:31.779Z,99491.80
2024-01-24T23:57:01.416Z,99511.20
2024-01-24T23:59:32.257Z,99504.71
